sensor_id;sensor_type;location;lat;lon;timestamp;P1;durP1;ratioP1;P2;durP2;ratioP2
4873;SDS011;2451;49.970;9.068;2022-11-15T00:00:49;9.98;;;5.65;;
4873;SDS011;2451;49.970;9.068;2022-11-15T00:03:16;11.65;;;5.63;;
4873;SDS011;2451;49.970;9.068;2022-11-15T00:05:43;8.95;;;5.93;;
4873;SDS011;2451;49.970;9.068;2022-11-15T00:08:09;9.70;;;5.80;;
4873;SDS011;2451;49.970;9.068;2022-11-15T00:10:36;8.85;;;5.40;;
4873;SDS011;2451;49.970;9.068;2022-11-15T00:13:05;6.95;;;5.18;;
4873;SDS011;2451;49.970;9.068;2022-11-15T00:15:34;7.75;;;5.30;;
4873;SDS011;2451;49.970;9.068;2022-11-15T00:18:01;9.25;;;5.32;;
4873;SDS011;2451;49.970;9.068;2022-11-15T00:20:28;9.65;;;5.13;;
4873;SDS011;2451;49.970;9.068;2022-11-15T00:22:54;7.97;;;4.97;;
4873;SDS011;2451;49.970;9.068;2022-11-15T00:25:20;7.40;;;5.05;;
4873;SDS011;2451;49.970;9.068;2022-11-15T00:27:45;11.93;;;5.35;;
4873;SDS011;2451;49.970;9.068;2022-11-15T00:30:11;9.70;;;4.95;;
4873;SDS011;2451;49.970;9.068;2022-11-15T00:32:37;8.95;;;5.18;;
4873;SDS011;2451;49.970;9.068;2022-11-15T00:35:03;8.68;;;4.85;;
4873;SDS011;2451;49.970;9.068;2022-11-15T00:37:28;9.65;;;5.07;;
4873;SDS011;2451;49.970;9.068;2022-11-15T00:39:54;10.30;;;5.70;;
4873;SDS011;2451;49.970;9.068;2022-11-15T00:42:20;9.45;;;5.20;;
4873;SDS011;2451;49.970;9.068;2022-11-15T00:44:45;9.02;;;5.63;;
4873;SDS011;2451;49.970;9.068;2022-11-15T00:47:11;7.95;;;5.50;;
4873;SDS011;2451;49.970;9.068;2022-11-15T00:49:36;8.80;;;5.63;;
4873;SDS011;2451;49.970;9.068;2022-11-15T00:52:02;9.00;;;5.35;;
4873;SDS011;2451;49.970;9.068;2022-11-15T00:54:27;11.13;;;6.15;;
4873;SDS011;2451;49.970;9.068;2022-11-15T00:56:53;10.45;;;5.78;;
4873;SDS011;2451;49.970;9.068;2022-11-15T00:59:19;11.10;;;6.50;;
4873;SDS011;2451;49.970;9.068;2022-11-15T01:01:44;9.35;;;5.60;;
4873;SDS011;2451;49.970;9.068;2022-11-15T01:04:10;12.02;;;6.07;;
4873;SDS011;2451;49.970;9.068;2022-11-15T01:06:35;9.05;;;5.70;;
4873;SDS011;2451;49.970;9.068;2022-11-15T01:09:01;10.90;;;6.20;;
4873;SDS011;2451;49.970;9.068;2022-11-15T01:11:26;7.95;;;5.47;;
4873;SDS011;2451;49.970;9.068;2022-11-15T01:13:52;9.07;;;5.78;;
4873;SDS011;2451;49.970;9.068;2022-11-15T01:16:19;11.48;;;5.70;;
4873;SDS011;2451;49.970;9.068;2022-11-15T01:18:45;10.70;;;6.45;;
4873;SDS011;2451;49.970;9.068;2022-11-15T01:21:12;8.45;;;5.70;;
4873;SDS011;2451;49.970;9.068;2022-11-15T01:23:40;9.63;;;6.13;;
4873;SDS011;2451;49.970;9.068;2022-11-15T01:26:06;10.68;;;5.78;;
4873;SDS011;2451;49.970;9.068;2022-11-15T01:28:35;10.73;;;5.88;;
4873;SDS011;2451;49.970;9.068;2022-11-15T01:31:03;9.70;;;5.70;;
4873;SDS011;2451;49.970;9.068;2022-11-15T01:33:30;8.98;;;5.55;;
4873;SDS011;2451;49.970;9.068;2022-11-15T01:35:58;8.45;;;5.32;;
4873;SDS011;2451;49.970;9.068;2022-11-15T01:38:30;10.20;;;5.53;;
4873;SDS011;2451;49.970;9.068;2022-11-15T01:40:55;9.95;;;5.45;;
4873;SDS011;2451;49.970;9.068;2022-11-15T01:43:23;9.40;;;5.07;;
4873;SDS011;2451;49.970;9.068;2022-11-15T01:45:52;10.63;;;5.22;;
4873;SDS011;2451;49.970;9.068;2022-11-15T01:48:22;7.07;;;4.88;;
4873;SDS011;2451;49.970;9.068;2022-11-15T01:50:50;9.38;;;5.20;;
4873;SDS011;2451;49.970;9.068;2022-11-15T01:53:17;9.68;;;5.85;;
4873;SDS011;2451;49.970;9.068;2022-11-15T01:55:44;8.02;;;5.60;;
4873;SDS011;2451;49.970;9.068;2022-11-15T01:58:10;10.88;;;5.75;;
4873;SDS011;2451;49.970;9.068;2022-11-15T02:00:36;9.90;;;5.95;;
4873;SDS011;2451;49.970;9.068;2022-11-15T02:03:01;10.10;;;6.38;;
4873;SDS011;2451;49.970;9.068;2022-11-15T02:05:27;10.15;;;6.18;;
4873;SDS011;2451;49.970;9.068;2022-11-15T02:07:55;10.30;;;5.97;;
4873;SDS011;2451;49.970;9.068;2022-11-15T02:10:21;9.85;;;6.15;;
4873;SDS011;2451;49.970;9.068;2022-11-15T02:12:49;9.82;;;6.03;;
4873;SDS011;2451;49.970;9.068;2022-11-15T02:15:15;9.45;;;5.90;;
4873;SDS011;2451;49.970;9.068;2022-11-15T02:17:52;9.52;;;6.43;;
4873;SDS011;2451;49.970;9.068;2022-11-15T02:28:16;10.50;;;5.22;;
4873;SDS011;2451;49.970;9.068;2022-11-15T02:34:17;9.43;;;5.53;;
4873;SDS011;2451;49.970;9.068;2022-11-15T02:39:32;10.35;;;5.75;;
4873;SDS011;2451;49.970;9.068;2022-11-15T02:42:27;10.13;;;5.53;;
4873;SDS011;2451;49.970;9.068;2022-11-15T02:45:18;10.10;;;4.97;;
4873;SDS011;2451;49.970;9.068;2022-11-15T02:47:48;10.93;;;5.65;;
4873;SDS011;2451;49.970;9.068;2022-11-15T02:50:18;9.07;;;5.90;;
4873;SDS011;2451;49.970;9.068;2022-11-15T02:52:48;8.73;;;5.53;;
4873;SDS011;2451;49.970;9.068;2022-11-15T02:55:31;9.82;;;5.50;;
4873;SDS011;2451;49.970;9.068;2022-11-15T03:03:46;8.45;;;5.60;;
4873;SDS011;2451;49.970;9.068;2022-11-15T03:11:35;9.73;;;5.38;;
4873;SDS011;2451;49.970;9.068;2022-11-15T03:14:12;9.13;;;5.20;;
4873;SDS011;2451;49.970;9.068;2022-11-15T03:19:24;7.70;;;5.20;;
4873;SDS011;2451;49.970;9.068;2022-11-15T03:22:01;10.20;;;5.43;;
4873;SDS011;2451;49.970;9.068;2022-11-15T03:24:29;8.75;;;4.93;;
4873;SDS011;2451;49.970;9.068;2022-11-15T03:26:56;9.70;;;5.47;;
4873;SDS011;2451;49.970;9.068;2022-11-15T03:29:27;12.10;;;5.43;;
4873;SDS011;2451;49.970;9.068;2022-11-15T03:32:06;8.07;;;5.53;;
4873;SDS011;2451;49.970;9.068;2022-11-15T03:37:08;11.68;;;5.97;;
4873;SDS011;2451;49.970;9.068;2022-11-15T03:39:37;10.55;;;5.70;;
4873;SDS011;2451;49.970;9.068;2022-11-15T03:42:46;11.82;;;5.05;;
4873;SDS011;2451;49.970;9.068;2022-11-15T03:45:12;8.02;;;5.10;;
4873;SDS011;2451;49.970;9.068;2022-11-15T03:50:14;12.18;;;5.50;;
4873;SDS011;2451;49.970;9.068;2022-11-15T03:52:44;12.13;;;5.53;;
4873;SDS011;2451;49.970;9.068;2022-11-15T03:55:13;10.25;;;6.35;;
4873;SDS011;2451;49.970;9.068;2022-11-15T03:57:40;14.77;;;8.15;;
4873;SDS011;2451;49.970;9.068;2022-11-15T04:00:06;13.57;;;7.95;;
4873;SDS011;2451;49.970;9.068;2022-11-15T04:02:32;11.77;;;7.07;;
4873;SDS011;2451;49.970;9.068;2022-11-15T04:04:58;9.27;;;5.80;;
4873;SDS011;2451;49.970;9.068;2022-11-15T04:07:25;9.80;;;5.70;;
4873;SDS011;2451;49.970;9.068;2022-11-15T04:09:50;11.95;;;6.72;;
4873;SDS011;2451;49.970;9.068;2022-11-15T04:12:35;10.30;;;6.95;;
4873;SDS011;2451;49.970;9.068;2022-11-15T04:17:54;12.55;;;6.53;;
4873;SDS011;2451;49.970;9.068;2022-11-15T04:20:25;10.40;;;6.43;;
4873;SDS011;2451;49.970;9.068;2022-11-15T04:23:14;10.00;;;5.88;;
4873;SDS011;2451;49.970;9.068;2022-11-15T04:26:00;9.63;;;5.90;;
4873;SDS011;2451;49.970;9.068;2022-11-15T04:28:29;10.10;;;5.85;;
4873;SDS011;2451;49.970;9.068;2022-11-15T04:30:55;10.60;;;5.60;;
4873;SDS011;2451;49.970;9.068;2022-11-15T04:33:21;10.63;;;6.20;;
4873;SDS011;2451;49.970;9.068;2022-11-15T04:35:47;14.25;;;6.20;;
4873;SDS011;2451;49.970;9.068;2022-11-15T04:38:33;10.43;;;5.75;;
4873;SDS011;2451;49.970;9.068;2022-11-15T04:40:59;12.27;;;5.60;;
4873;SDS011;2451;49.970;9.068;2022-11-15T04:43:24;9.98;;;5.45;;
4873;SDS011;2451;49.970;9.068;2022-11-15T04:45:50;9.60;;;5.43;;
4873;SDS011;2451;49.970;9.068;2022-11-15T04:48:16;8.75;;;5.53;;
4873;SDS011;2451;49.970;9.068;2022-11-15T04:50:41;11.80;;;5.90;;
4873;SDS011;2451;49.970;9.068;2022-11-15T04:53:07;10.15;;;5.88;;
4873;SDS011;2451;49.970;9.068;2022-11-15T04:55:32;10.50;;;5.50;;
4873;SDS011;2451;49.970;9.068;2022-11-15T04:58:01;9.27;;;5.70;;
4873;SDS011;2451;49.970;9.068;2022-11-15T05:00:28;8.70;;;5.63;;
4873;SDS011;2451;49.970;9.068;2022-11-15T05:02:54;9.40;;;5.45;;
4873;SDS011;2451;49.970;9.068;2022-11-15T05:05:39;9.52;;;5.20;;
4873;SDS011;2451;49.970;9.068;2022-11-15T05:08:04;11.35;;;5.53;;
4873;SDS011;2451;49.970;9.068;2022-11-15T05:10:30;9.10;;;5.57;;
4873;SDS011;2451;49.970;9.068;2022-11-15T05:12:56;11.63;;;5.57;;
4873;SDS011;2451;49.970;9.068;2022-11-15T05:15:21;8.93;;;5.18;;
4873;SDS011;2451;49.970;9.068;2022-11-15T05:17:47;9.85;;;5.85;;
4873;SDS011;2451;49.970;9.068;2022-11-15T05:20:12;10.13;;;6.03;;
4873;SDS011;2451;49.970;9.068;2022-11-15T05:22:38;9.48;;;6.18;;
4873;SDS011;2451;49.970;9.068;2022-11-15T05:25:04;9.07;;;5.85;;
4873;SDS011;2451;49.970;9.068;2022-11-15T05:27:30;11.80;;;5.75;;
4873;SDS011;2451;49.970;9.068;2022-11-15T05:29:56;9.52;;;5.68;;
4873;SDS011;2451;49.970;9.068;2022-11-15T05:32:22;11.23;;;5.82;;
4873;SDS011;2451;49.970;9.068;2022-11-15T05:34:48;10.70;;;5.68;;
4873;SDS011;2451;49.970;9.068;2022-11-15T05:37:14;9.13;;;6.00;;
4873;SDS011;2451;49.970;9.068;2022-11-15T05:39:40;10.60;;;6.75;;
4873;SDS011;2451;49.970;9.068;2022-11-15T05:42:09;11.10;;;6.50;;
4873;SDS011;2451;49.970;9.068;2022-11-15T05:44:38;9.98;;;6.07;;
4873;SDS011;2451;49.970;9.068;2022-11-15T05:47:06;11.70;;;7.28;;
4873;SDS011;2451;49.970;9.068;2022-11-15T05:49:35;12.43;;;6.88;;
4873;SDS011;2451;49.970;9.068;2022-11-15T05:52:03;9.45;;;6.28;;
4873;SDS011;2451;49.970;9.068;2022-11-15T05:54:31;10.33;;;6.33;;
4873;SDS011;2451;49.970;9.068;2022-11-15T05:56:58;12.02;;;7.75;;
4873;SDS011;2451;49.970;9.068;2022-11-15T05:59:25;12.98;;;6.78;;
4873;SDS011;2451;49.970;9.068;2022-11-15T06:01:53;12.23;;;6.35;;
4873;SDS011;2451;49.970;9.068;2022-11-15T06:04:18;11.15;;;6.28;;
4873;SDS011;2451;49.970;9.068;2022-11-15T06:06:44;9.98;;;6.30;;
4873;SDS011;2451;49.970;9.068;2022-11-15T06:09:09;9.88;;;6.18;;
4873;SDS011;2451;49.970;9.068;2022-11-15T06:11:35;12.95;;;6.22;;
4873;SDS011;2451;49.970;9.068;2022-11-15T06:14:01;9.77;;;5.90;;
4873;SDS011;2451;49.970;9.068;2022-11-15T06:16:26;10.40;;;5.95;;
4873;SDS011;2451;49.970;9.068;2022-11-15T06:18:52;9.75;;;5.93;;
4873;SDS011;2451;49.970;9.068;2022-11-15T06:21:17;13.63;;;5.88;;
4873;SDS011;2451;49.970;9.068;2022-11-15T06:23:43;10.30;;;6.15;;
4873;SDS011;2451;49.970;9.068;2022-11-15T06:26:08;18.70;;;12.02;;
4873;SDS011;2451;49.970;9.068;2022-11-15T06:28:34;10.73;;;7.50;;
4873;SDS011;2451;49.970;9.068;2022-11-15T06:31:03;13.70;;;9.50;;
4873;SDS011;2451;49.970;9.068;2022-11-15T06:33:34;10.88;;;7.20;;
4873;SDS011;2451;49.970;9.068;2022-11-15T06:36:03;13.75;;;8.00;;
4873;SDS011;2451;49.970;9.068;2022-11-15T06:38:30;14.77;;;8.05;;
4873;SDS011;2451;49.970;9.068;2022-11-15T06:41:00;13.80;;;7.47;;
4873;SDS011;2451;49.970;9.068;2022-11-15T06:43:30;10.65;;;6.15;;
4873;SDS011;2451;49.970;9.068;2022-11-15T06:45:57;9.98;;;6.47;;
4873;SDS011;2451;49.970;9.068;2022-11-15T06:48:24;13.23;;;6.95;;
4873;SDS011;2451;49.970;9.068;2022-11-15T06:50:50;11.43;;;6.43;;
4873;SDS011;2451;49.970;9.068;2022-11-15T06:53:16;11.48;;;6.40;;
4873;SDS011;2451;49.970;9.068;2022-11-15T06:55:42;14.27;;;6.50;;
4873;SDS011;2451;49.970;9.068;2022-11-15T06:58:07;11.55;;;6.53;;
4873;SDS011;2451;49.970;9.068;2022-11-15T07:00:33;10.25;;;6.50;;
4873;SDS011;2451;49.970;9.068;2022-11-15T07:03:02;13.77;;;6.55;;
4873;SDS011;2451;49.970;9.068;2022-11-15T07:05:28;11.32;;;7.32;;
4873;SDS011;2451;49.970;9.068;2022-11-15T07:07:53;13.32;;;7.50;;
4873;SDS011;2451;49.970;9.068;2022-11-15T07:10:21;12.07;;;7.03;;
4873;SDS011;2451;49.970;9.068;2022-11-15T07:12:49;11.40;;;6.10;;
4873;SDS011;2451;49.970;9.068;2022-11-15T07:15:15;10.48;;;6.20;;
4873;SDS011;2451;49.970;9.068;2022-11-15T07:17:41;10.75;;;6.07;;
4873;SDS011;2451;49.970;9.068;2022-11-15T07:20:07;9.55;;;6.40;;
4873;SDS011;2451;49.970;9.068;2022-11-15T07:22:33;9.60;;;5.95;;
4873;SDS011;2451;49.970;9.068;2022-11-15T07:24:58;11.23;;;6.28;;
4873;SDS011;2451;49.970;9.068;2022-11-15T07:27:24;9.82;;;5.57;;
4873;SDS011;2451;49.970;9.068;2022-11-15T07:29:50;10.60;;;6.78;;
4873;SDS011;2451;49.970;9.068;2022-11-15T07:32:15;9.65;;;6.50;;
4873;SDS011;2451;49.970;9.068;2022-11-15T07:34:41;10.63;;;5.93;;
4873;SDS011;2451;49.970;9.068;2022-11-15T07:37:06;11.63;;;6.28;;
4873;SDS011;2451;49.970;9.068;2022-11-15T07:39:32;10.05;;;6.10;;
4873;SDS011;2451;49.970;9.068;2022-11-15T07:41:58;9.63;;;6.22;;
4873;SDS011;2451;49.970;9.068;2022-11-15T07:44:48;11.32;;;6.28;;
4873;SDS011;2451;49.970;9.068;2022-11-15T07:47:13;11.68;;;5.90;;
4873;SDS011;2451;49.970;9.068;2022-11-15T07:49:39;10.10;;;6.30;;
4873;SDS011;2451;49.970;9.068;2022-11-15T07:52:07;9.60;;;5.78;;
4873;SDS011;2451;49.970;9.068;2022-11-15T07:54:33;13.10;;;5.95;;
4873;SDS011;2451;49.970;9.068;2022-11-15T07:56:59;8.40;;;5.30;;
4873;SDS011;2451;49.970;9.068;2022-11-15T07:59:25;10.27;;;5.93;;
4873;SDS011;2451;49.970;9.068;2022-11-15T08:01:52;11.85;;;5.68;;
4873;SDS011;2451;49.970;9.068;2022-11-15T08:04:17;8.60;;;5.50;;
4873;SDS011;2451;49.970;9.068;2022-11-15T08:06:43;10.85;;;6.03;;
4873;SDS011;2451;49.970;9.068;2022-11-15T08:09:08;9.20;;;6.03;;
4873;SDS011;2451;49.970;9.068;2022-11-15T08:11:34;11.18;;;6.40;;
4873;SDS011;2451;49.970;9.068;2022-11-15T08:13:59;9.05;;;5.50;;
4873;SDS011;2451;49.970;9.068;2022-11-15T08:16:25;10.95;;;6.00;;
4873;SDS011;2451;49.970;9.068;2022-11-15T08:18:50;12.93;;;6.65;;
4873;SDS011;2451;49.970;9.068;2022-11-15T08:21:17;12.75;;;6.03;;
4873;SDS011;2451;49.970;9.068;2022-11-15T08:23:44;10.73;;;5.88;;
4873;SDS011;2451;49.970;9.068;2022-11-15T08:26:10;9.48;;;5.80;;
4873;SDS011;2451;49.970;9.068;2022-11-15T08:28:36;11.35;;;5.80;;
4873;SDS011;2451;49.970;9.068;2022-11-15T08:31:02;9.60;;;5.60;;
4873;SDS011;2451;49.970;9.068;2022-11-15T08:33:28;8.43;;;5.55;;
4873;SDS011;2451;49.970;9.068;2022-11-15T08:35:57;8.27;;;5.70;;
4873;SDS011;2451;49.970;9.068;2022-11-15T08:40:53;9.50;;;5.53;;
4873;SDS011;2451;49.970;9.068;2022-11-15T08:43:25;9.15;;;5.30;;
4873;SDS011;2451;49.970;9.068;2022-11-15T08:45:50;9.70;;;5.57;;
4873;SDS011;2451;49.970;9.068;2022-11-15T08:48:16;10.68;;;4.72;;
4873;SDS011;2451;49.970;9.068;2022-11-15T08:50:41;10.52;;;5.22;;
4873;SDS011;2451;49.970;9.068;2022-11-15T08:53:08;8.23;;;5.15;;
4873;SDS011;2451;49.970;9.068;2022-11-15T08:55:38;8.40;;;4.85;;
4873;SDS011;2451;49.970;9.068;2022-11-15T08:58:04;8.40;;;4.30;;
4873;SDS011;2451;49.970;9.068;2022-11-15T09:00:30;7.65;;;4.30;;
4873;SDS011;2451;49.970;9.068;2022-11-15T09:02:55;7.95;;;4.97;;
4873;SDS011;2451;49.970;9.068;2022-11-15T09:05:21;8.73;;;5.00;;
4873;SDS011;2451;49.970;9.068;2022-11-15T09:07:47;8.75;;;5.05;;
4873;SDS011;2451;49.970;9.068;2022-11-15T09:10:17;11.57;;;5.18;;
4873;SDS011;2451;49.970;9.068;2022-11-15T09:12:43;9.32;;;5.07;;
4873;SDS011;2451;49.970;9.068;2022-11-15T09:15:08;8.07;;;4.60;;
4873;SDS011;2451;49.970;9.068;2022-11-15T09:17:34;9.55;;;5.10;;
4873;SDS011;2451;49.970;9.068;2022-11-15T09:19:59;7.97;;;4.40;;
4873;SDS011;2451;49.970;9.068;2022-11-15T09:22:25;8.75;;;4.93;;
4873;SDS011;2451;49.970;9.068;2022-11-15T09:24:51;7.63;;;4.15;;
4873;SDS011;2451;49.970;9.068;2022-11-15T09:27:16;8.00;;;4.72;;
4873;SDS011;2451;49.970;9.068;2022-11-15T09:29:42;7.97;;;4.72;;
4873;SDS011;2451;49.970;9.068;2022-11-15T09:32:07;7.70;;;4.40;;
4873;SDS011;2451;49.970;9.068;2022-11-15T09:34:33;9.57;;;4.68;;
4873;SDS011;2451;49.970;9.068;2022-11-15T09:36:59;10.60;;;4.90;;
4873;SDS011;2451;49.970;9.068;2022-11-15T09:39:25;11.95;;;4.93;;
4873;SDS011;2451;49.970;9.068;2022-11-15T09:47:29;6.87;;;4.33;;
4873;SDS011;2451;49.970;9.068;2022-11-15T09:50:14;8.20;;;4.50;;
4873;SDS011;2451;49.970;9.068;2022-11-15T09:52:42;10.77;;;4.70;;
4873;SDS011;2451;49.970;9.068;2022-11-15T09:55:10;12.70;;;5.10;;
4873;SDS011;2451;49.970;9.068;2022-11-15T10:05:18;8.52;;;3.97;;
4873;SDS011;2451;49.970;9.068;2022-11-15T10:10:37;8.43;;;4.05;;
4873;SDS011;2451;49.970;9.068;2022-11-15T10:13:18;9.60;;;3.70;;
4873;SDS011;2451;49.970;9.068;2022-11-15T10:15:47;7.40;;;3.90;;
4873;SDS011;2451;49.970;9.068;2022-11-15T10:18:27;7.25;;;3.83;;
4873;SDS011;2451;49.970;9.068;2022-11-15T10:21:02;7.63;;;4.03;;
4873;SDS011;2451;49.970;9.068;2022-11-15T10:23:41;7.40;;;4.10;;
4873;SDS011;2451;49.970;9.068;2022-11-15T10:26:08;9.55;;;3.83;;
4873;SDS011;2451;49.970;9.068;2022-11-15T10:28:38;8.52;;;4.25;;
4873;SDS011;2451;49.970;9.068;2022-11-15T10:31:10;6.32;;;4.30;;
4873;SDS011;2451;49.970;9.068;2022-11-15T10:33:51;9.32;;;4.55;;
4873;SDS011;2451;49.970;9.068;2022-11-15T10:36:24;6.53;;;3.60;;
4873;SDS011;2451;49.970;9.068;2022-11-15T10:44:02;6.18;;;4.00;;
4873;SDS011;2451;49.970;9.068;2022-11-15T10:46:31;7.15;;;3.33;;
4873;SDS011;2451;49.970;9.068;2022-11-15T10:49:31;8.50;;;3.70;;
4873;SDS011;2451;49.970;9.068;2022-11-15T10:51:57;9.02;;;3.88;;
4873;SDS011;2451;49.970;9.068;2022-11-15T10:54:36;8.23;;;3.55;;
4873;SDS011;2451;49.970;9.068;2022-11-15T10:57:12;6.80;;;4.20;;
4873;SDS011;2451;49.970;9.068;2022-11-15T10:59:39;7.63;;;4.32;;
4873;SDS011;2451;49.970;9.068;2022-11-15T11:05:02;7.15;;;4.53;;
4873;SDS011;2451;49.970;9.068;2022-11-15T11:07:32;7.85;;;4.18;;
4873;SDS011;2451;49.970;9.068;2022-11-15T11:10:32;7.40;;;4.13;;
4873;SDS011;2451;49.970;9.068;2022-11-15T11:12:52;9.00;;;4.40;;
4873;SDS011;2451;49.970;9.068;2022-11-15T11:15:17;9.98;;;4.30;;
4873;SDS011;2451;49.970;9.068;2022-11-15T11:20:18;9.80;;;4.65;;
4873;SDS011;2451;49.970;9.068;2022-11-15T11:25:45;6.93;;;4.25;;
4873;SDS011;2451;49.970;9.068;2022-11-15T11:28:25;9.43;;;4.57;;
4873;SDS011;2451;49.970;9.068;2022-11-15T11:34:15;10.45;;;6.38;;
4873;SDS011;2451;49.970;9.068;2022-11-15T11:37:07;8.55;;;5.93;;
4873;SDS011;2451;49.970;9.068;2022-11-15T11:39:57;10.15;;;4.55;;
4873;SDS011;2451;49.970;9.068;2022-11-15T11:43:12;8.70;;;4.38;;
4873;SDS011;2451;49.970;9.068;2022-11-15T11:45:57;8.30;;;4.03;;
4873;SDS011;2451;49.970;9.068;2022-11-15T11:48:49;6.50;;;3.70;;
4873;SDS011;2451;49.970;9.068;2022-11-15T11:57:21;8.95;;;4.18;;
4873;SDS011;2451;49.970;9.068;2022-11-15T12:00:00;9.90;;;4.00;;
4873;SDS011;2451;49.970;9.068;2022-11-15T12:02:31;6.75;;;3.58;;
4873;SDS011;2451;49.970;9.068;2022-11-15T12:05:13;6.50;;;3.63;;
4873;SDS011;2451;49.970;9.068;2022-11-15T12:07:45;7.05;;;3.25;;
4873;SDS011;2451;49.970;9.068;2022-11-15T12:10:19;5.82;;;3.50;;
4873;SDS011;2451;49.970;9.068;2022-11-15T12:13:06;9.07;;;3.75;;
4873;SDS011;2451;49.970;9.068;2022-11-15T12:15:45;12.02;;;3.90;;
4873;SDS011;2451;49.970;9.068;2022-11-15T12:18:17;6.15;;;3.78;;
4873;SDS011;2451;49.970;9.068;2022-11-15T12:20:53;7.82;;;3.90;;
4873;SDS011;2451;49.970;9.068;2022-11-15T12:23:27;6.40;;;3.58;;
4873;SDS011;2451;49.970;9.068;2022-11-15T12:26:07;6.60;;;3.65;;
4873;SDS011;2451;49.970;9.068;2022-11-15T12:31:16;6.38;;;2.95;;
4873;SDS011;2451;49.970;9.068;2022-11-15T12:33:55;4.30;;;2.53;;
4873;SDS011;2451;49.970;9.068;2022-11-15T12:43:57;6.70;;;3.10;;
4873;SDS011;2451;49.970;9.068;2022-11-15T13:15:33;3.35;;;2.38;;
4873;SDS011;2451;49.970;9.068;2022-11-15T13:18:37;4.72;;;2.45;;
4873;SDS011;2451;49.970;9.068;2022-11-15T13:21:16;4.13;;;2.50;;
4873;SDS011;2451;49.970;9.068;2022-11-15T13:24:03;3.00;;;2.45;;
4873;SDS011;2451;49.970;9.068;2022-11-15T13:26:29;5.43;;;2.65;;
4873;SDS011;2451;49.970;9.068;2022-11-15T13:28:55;4.85;;;2.80;;
4873;SDS011;2451;49.970;9.068;2022-11-15T13:33:54;7.05;;;2.80;;
4873;SDS011;2451;49.970;9.068;2022-11-15T13:36:32;6.63;;;3.10;;
4873;SDS011;2451;49.970;9.068;2022-11-15T13:39:06;7.15;;;3.00;;
4873;SDS011;2451;49.970;9.068;2022-11-15T13:41:49;4.72;;;2.97;;
4873;SDS011;2451;49.970;9.068;2022-11-15T13:44:20;6.57;;;3.30;;
4873;SDS011;2451;49.970;9.068;2022-11-15T13:46:48;6.15;;;3.60;;
4873;SDS011;2451;49.970;9.068;2022-11-15T13:49:28;9.45;;;3.88;;
4873;SDS011;2451;49.970;9.068;2022-11-15T13:51:56;6.30;;;3.70;;
4873;SDS011;2451;49.970;9.068;2022-11-15T13:54:29;6.75;;;3.70;;
4873;SDS011;2451;49.970;9.068;2022-11-15T13:59:36;9.82;;;3.90;;
4873;SDS011;2451;49.970;9.068;2022-11-15T14:02:13;6.72;;;3.47;;
4873;SDS011;2451;49.970;9.068;2022-11-15T14:04:50;7.32;;;3.97;;
4873;SDS011;2451;49.970;9.068;2022-11-15T14:07:18;7.95;;;4.63;;
4873;SDS011;2451;49.970;9.068;2022-11-15T14:09:46;16.90;;;8.68;;
4873;SDS011;2451;49.970;9.068;2022-11-15T14:14:58;12.57;;;6.50;;
4873;SDS011;2451;49.970;9.068;2022-11-15T14:19:53;8.10;;;3.63;;
4873;SDS011;2451;49.970;9.068;2022-11-15T14:24:55;7.38;;;3.75;;
4873;SDS011;2451;49.970;9.068;2022-11-15T14:27:39;5.50;;;3.50;;
4873;SDS011;2451;49.970;9.068;2022-11-15T14:30:12;8.85;;;3.83;;
4873;SDS011;2451;49.970;9.068;2022-11-15T14:32:44;8.35;;;3.60;;
4873;SDS011;2451;49.970;9.068;2022-11-15T14:35:15;10.02;;;4.10;;
4873;SDS011;2451;49.970;9.068;2022-11-15T14:37:42;12.32;;;4.40;;
4873;SDS011;2451;49.970;9.068;2022-11-15T14:40:08;10.25;;;5.35;;
4873;SDS011;2451;49.970;9.068;2022-11-15T14:42:44;20.50;;;9.55;;
4873;SDS011;2451;49.970;9.068;2022-11-15T14:45:17;21.05;;;9.90;;
4873;SDS011;2451;49.970;9.068;2022-11-15T14:47:45;25.80;;;13.05;;
4873;SDS011;2451;49.970;9.068;2022-11-15T14:50:15;11.32;;;5.40;;
4873;SDS011;2451;49.970;9.068;2022-11-15T14:52:42;10.77;;;4.45;;
4873;SDS011;2451;49.970;9.068;2022-11-15T14:55:16;7.47;;;4.20;;
4873;SDS011;2451;49.970;9.068;2022-11-15T14:57:46;9.32;;;5.72;;
4873;SDS011;2451;49.970;9.068;2022-11-15T15:00:12;10.88;;;4.07;;
4873;SDS011;2451;49.970;9.068;2022-11-15T15:02:39;9.70;;;4.45;;
4873;SDS011;2451;49.970;9.068;2022-11-15T15:05:22;9.73;;;4.90;;
4873;SDS011;2451;49.970;9.068;2022-11-15T15:07:49;7.88;;;4.45;;
4873;SDS011;2451;49.970;9.068;2022-11-15T15:10:17;9.95;;;4.20;;
4873;SDS011;2451;49.970;9.068;2022-11-15T15:12:43;9.63;;;4.18;;
4873;SDS011;2451;49.970;9.068;2022-11-15T15:15:13;8.43;;;3.90;;
4873;SDS011;2451;49.970;9.068;2022-11-15T15:17:40;6.25;;;4.05;;
4873;SDS011;2451;49.970;9.068;2022-11-15T15:20:06;8.00;;;4.13;;
4873;SDS011;2451;49.970;9.068;2022-11-15T15:22:32;7.63;;;4.57;;
4873;SDS011;2451;49.970;9.068;2022-11-15T15:25:01;11.27;;;5.32;;
4873;SDS011;2451;49.970;9.068;2022-11-15T15:27:27;11.63;;;5.32;;
4873;SDS011;2451;49.970;9.068;2022-11-15T15:29:52;10.07;;;4.60;;
4873;SDS011;2451;49.970;9.068;2022-11-15T15:32:18;12.00;;;6.07;;
4873;SDS011;2451;49.970;9.068;2022-11-15T15:34:44;13.80;;;6.47;;
4873;SDS011;2451;49.970;9.068;2022-11-15T15:37:21;14.25;;;8.02;;
4873;SDS011;2451;49.970;9.068;2022-11-15T15:39:51;13.15;;;6.38;;
4873;SDS011;2451;49.970;9.068;2022-11-15T15:42:18;11.43;;;5.70;;
4873;SDS011;2451;49.970;9.068;2022-11-15T15:44:44;12.82;;;6.03;;
4873;SDS011;2451;49.970;9.068;2022-11-15T15:47:13;13.75;;;5.85;;
4873;SDS011;2451;49.970;9.068;2022-11-15T15:49:47;9.20;;;4.93;;
4873;SDS011;2451;49.970;9.068;2022-11-15T15:52:13;11.07;;;5.35;;
4873;SDS011;2451;49.970;9.068;2022-11-15T15:54:39;12.45;;;6.28;;
4873;SDS011;2451;49.970;9.068;2022-11-15T15:57:05;10.00;;;5.45;;
4873;SDS011;2451;49.970;9.068;2022-11-15T15:59:32;6.75;;;4.57;;
4873;SDS011;2451;49.970;9.068;2022-11-15T16:01:57;8.27;;;4.65;;
4873;SDS011;2451;49.970;9.068;2022-11-15T16:04:23;9.25;;;4.50;;
4873;SDS011;2451;49.970;9.068;2022-11-15T16:06:49;11.43;;;5.22;;
4873;SDS011;2451;49.970;9.068;2022-11-15T16:09:17;8.10;;;4.70;;
4873;SDS011;2451;49.970;9.068;2022-11-15T16:12:04;8.55;;;5.45;;
4873;SDS011;2451;49.970;9.068;2022-11-15T16:14:30;9.73;;;6.57;;
4873;SDS011;2451;49.970;9.068;2022-11-15T16:16:56;11.68;;;6.70;;
4873;SDS011;2451;49.970;9.068;2022-11-15T16:19:21;10.18;;;7.00;;
4873;SDS011;2451;49.970;9.068;2022-11-15T16:21:47;12.25;;;6.45;;
4873;SDS011;2451;49.970;9.068;2022-11-15T16:24:13;8.82;;;6.15;;
4873;SDS011;2451;49.970;9.068;2022-11-15T16:26:38;11.30;;;6.25;;
4873;SDS011;2451;49.970;9.068;2022-11-15T16:29:04;12.93;;;5.95;;
4873;SDS011;2451;49.970;9.068;2022-11-15T16:31:31;14.80;;;5.85;;
4873;SDS011;2451;49.970;9.068;2022-11-15T16:33:57;10.77;;;5.75;;
4873;SDS011;2451;49.970;9.068;2022-11-15T16:36:24;10.57;;;5.65;;
4873;SDS011;2451;49.970;9.068;2022-11-15T16:38:51;9.45;;;5.93;;
4873;SDS011;2451;49.970;9.068;2022-11-15T16:41:17;8.35;;;5.65;;
4873;SDS011;2451;49.970;9.068;2022-11-15T16:43:46;9.75;;;5.60;;
4873;SDS011;2451;49.970;9.068;2022-11-15T16:46:18;11.40;;;6.30;;
4873;SDS011;2451;49.970;9.068;2022-11-15T16:48:45;8.88;;;5.78;;
4873;SDS011;2451;49.970;9.068;2022-11-15T16:51:11;6.72;;;4.80;;
4873;SDS011;2451;49.970;9.068;2022-11-15T16:53:37;10.10;;;5.30;;
4873;SDS011;2451;49.970;9.068;2022-11-15T16:56:03;7.47;;;4.82;;
4873;SDS011;2451;49.970;9.068;2022-11-15T16:58:37;7.25;;;4.80;;
4873;SDS011;2451;49.970;9.068;2022-11-15T17:01:02;7.82;;;4.40;;
4873;SDS011;2451;49.970;9.068;2022-11-15T17:03:29;7.95;;;4.50;;
4873;SDS011;2451;49.970;9.068;2022-11-15T17:05:56;8.68;;;5.20;;
4873;SDS011;2451;49.970;9.068;2022-11-15T17:08:23;8.10;;;5.20;;
4873;SDS011;2451;49.970;9.068;2022-11-15T17:10:49;9.40;;;6.30;;
4873;SDS011;2451;49.970;9.068;2022-11-15T17:13:14;8.20;;;5.03;;
4873;SDS011;2451;49.970;9.068;2022-11-15T17:15:40;9.20;;;5.50;;
4873;SDS011;2451;49.970;9.068;2022-11-15T17:18:07;8.25;;;5.70;;
4873;SDS011;2451;49.970;9.068;2022-11-15T17:20:39;11.27;;;6.38;;
4873;SDS011;2451;49.970;9.068;2022-11-15T17:23:08;10.85;;;6.53;;
4873;SDS011;2451;49.970;9.068;2022-11-15T17:25:38;13.02;;;7.85;;
4873;SDS011;2451;49.970;9.068;2022-11-15T17:28:04;15.30;;;7.82;;
4873;SDS011;2451;49.970;9.068;2022-11-15T17:30:29;11.13;;;6.95;;
4873;SDS011;2451;49.970;9.068;2022-11-15T17:32:55;11.50;;;8.00;;